sensor_id;sensor_type;location;lat;lon;timestamp;P1;durP1;ratioP1;P2;durP2;ratioP2
9214;SDS011;4642;51.364;6.788;2023-04-03T00:01:25;3.07;;;2.13;;
9214;SDS011;4642;51.364;6.788;2023-04-03T00:03:51;5.33;;;2.40;;
9214;SDS011;4642;51.364;6.788;2023-04-03T00:06:17;4.23;;;2.47;;
9214;SDS011;4642;51.364;6.788;2023-04-03T00:08:42;3.63;;;2.50;;
9214;SDS011;4642;51.364;6.788;2023-04-03T00:11:08;3.50;;;2.43;;
9214;SDS011;4642;51.364;6.788;2023-04-03T00:13:35;3.27;;;2.60;;
9214;SDS011;4642;51.364;6.788;2023-04-03T00:16:01;6.07;;;2.63;;
9214;SDS011;4642;51.364;6.788;2023-04-03T00:18:28;6.00;;;3.00;;
9214;SDS011;4642;51.364;6.788;2023-04-03T00:20:54;3.47;;;2.60;;
9214;SDS011;4642;51.364;6.788;2023-04-03T00:23:19;3.33;;;2.77;;
9214;SDS011;4642;51.364;6.788;2023-04-03T00:25:45;5.20;;;2.87;;
9214;SDS011;4642;51.364;6.788;2023-04-03T00:28:11;4.63;;;3.13;;
9214;SDS011;4642;51.364;6.788;2023-04-03T00:30:36;5.30;;;3.33;;
9214;SDS011;4642;51.364;6.788;2023-04-03T00:33:02;4.00;;;3.17;;
9214;SDS011;4642;51.364;6.788;2023-04-03T00:35:28;4.80;;;3.03;;
9214;SDS011;4642;51.364;6.788;2023-04-03T00:37:54;5.47;;;3.47;;
9214;SDS011;4642;51.364;6.788;2023-04-03T00:40:21;4.87;;;3.17;;
9214;SDS011;4642;51.364;6.788;2023-04-03T00:42:49;8.50;;;2.90;;
9214;SDS011;4642;51.364;6.788;2023-04-03T00:45:23;4.80;;;2.97;;
9214;SDS011;4642;51.364;6.788;2023-04-03T00:48:16;5.20;;;3.20;;
9214;SDS011;4642;51.364;6.788;2023-04-03T00:50:44;6.43;;;3.37;;
9214;SDS011;4642;51.364;6.788;2023-04-03T00:53:12;5.07;;;3.57;;
9214;SDS011;4642;51.364;6.788;2023-04-03T00:55:42;4.97;;;3.17;;
9214;SDS011;4642;51.364;6.788;2023-04-03T00:58:08;5.63;;;3.13;;
9214;SDS011;4642;51.364;6.788;2023-04-03T01:00:36;3.87;;;2.90;;
9214;SDS011;4642;51.364;6.788;2023-04-03T01:03:03;3.17;;;2.87;;
9214;SDS011;4642;51.364;6.788;2023-04-03T01:05:29;4.83;;;3.30;;
9214;SDS011;4642;51.364;6.788;2023-04-03T01:07:55;4.47;;;3.40;;
9214;SDS011;4642;51.364;6.788;2023-04-03T01:10:22;5.33;;;3.37;;
9214;SDS011;4642;51.364;6.788;2023-04-03T01:12:51;4.13;;;3.17;;
9214;SDS011;4642;51.364;6.788;2023-04-03T01:15:18;6.80;;;3.30;;
9214;SDS011;4642;51.364;6.788;2023-04-03T01:17:48;6.37;;;3.10;;
9214;SDS011;4642;51.364;6.788;2023-04-03T01:25:39;5.60;;;3.63;;
9214;SDS011;4642;51.364;6.788;2023-04-03T01:28:08;5.10;;;3.83;;
9214;SDS011;4642;51.364;6.788;2023-04-03T01:30:51;5.03;;;3.40;;
9214;SDS011;4642;51.364;6.788;2023-04-03T01:33:23;6.63;;;3.90;;
9214;SDS011;4642;51.364;6.788;2023-04-03T01:35:48;11.50;;;3.80;;
9214;SDS011;4642;51.364;6.788;2023-04-03T01:38:14;6.80;;;3.93;;
9214;SDS011;4642;51.364;6.788;2023-04-03T01:40:39;6.63;;;3.83;;
9214;SDS011;4642;51.364;6.788;2023-04-03T01:43:05;5.03;;;3.53;;
9214;SDS011;4642;51.364;6.788;2023-04-03T01:45:30;6.90;;;3.87;;
9214;SDS011;4642;51.364;6.788;2023-04-03T01:47:56;7.27;;;3.90;;
9214;SDS011;4642;51.364;6.788;2023-04-03T01:50:22;4.30;;;3.30;;
9214;SDS011;4642;51.364;6.788;2023-04-03T01:52:47;7.10;;;3.50;;
9214;SDS011;4642;51.364;6.788;2023-04-03T01:55:13;7.30;;;3.80;;
9214;SDS011;4642;51.364;6.788;2023-04-03T01:57:38;3.40;;;3.10;;
9214;SDS011;4642;51.364;6.788;2023-04-03T02:00:04;4.70;;;3.60;;
9214;SDS011;4642;51.364;6.788;2023-04-03T02:02:30;5.47;;;3.60;;
9214;SDS011;4642;51.364;6.788;2023-04-03T02:04:55;4.50;;;3.63;;
9214;SDS011;4642;51.364;6.788;2023-04-03T02:07:21;6.40;;;3.83;;
9214;SDS011;4642;51.364;6.788;2023-04-03T02:09:47;10.03;;;4.47;;
9214;SDS011;4642;51.364;6.788;2023-04-03T02:12:12;7.27;;;4.40;;
9214;SDS011;4642;51.364;6.788;2023-04-03T02:14:38;7.33;;;4.17;;
9214;SDS011;4642;51.364;6.788;2023-04-03T02:17:03;5.57;;;3.47;;
9214;SDS011;4642;51.364;6.788;2023-04-03T02:19:33;5.17;;;3.83;;
9214;SDS011;4642;51.364;6.788;2023-04-03T02:21:59;6.87;;;4.67;;
9214;SDS011;4642;51.364;6.788;2023-04-03T02:24:25;5.53;;;4.43;;
9214;SDS011;4642;51.364;6.788;2023-04-03T02:26:50;5.57;;;4.17;;
9214;SDS011;4642;51.364;6.788;2023-04-03T02:29:16;5.10;;;4.40;;
9214;SDS011;4642;51.364;6.788;2023-04-03T02:31:41;6.13;;;4.70;;
9214;SDS011;4642;51.364;6.788;2023-04-03T02:34:07;9.00;;;4.63;;
9214;SDS011;4642;51.364;6.788;2023-04-03T02:36:32;5.77;;;4.50;;
9214;SDS011;4642;51.364;6.788;2023-04-03T02:38:58;7.23;;;4.50;;
9214;SDS011;4642;51.364;6.788;2023-04-03T02:41:23;7.17;;;4.63;;
9214;SDS011;4642;51.364;6.788;2023-04-03T02:43:52;6.67;;;3.87;;
9214;SDS011;4642;51.364;6.788;2023-04-03T02:46:18;6.13;;;4.80;;
9214;SDS011;4642;51.364;6.788;2023-04-03T02:48:43;8.80;;;4.57;;
9214;SDS011;4642;51.364;6.788;2023-04-03T02:51:09;8.97;;;4.43;;
9214;SDS011;4642;51.364;6.788;2023-04-03T02:53:34;8.37;;;4.77;;
9214;SDS011;4642;51.364;6.788;2023-04-03T02:56:00;7.90;;;4.20;;
9214;SDS011;4642;51.364;6.788;2023-04-03T02:58:25;7.37;;;4.03;;
9214;SDS011;4642;51.364;6.788;2023-04-03T03:00:51;6.33;;;4.37;;
9214;SDS011;4642;51.364;6.788;2023-04-03T03:03:16;7.33;;;3.77;;
9214;SDS011;4642;51.364;6.788;2023-04-03T03:05:42;4.73;;;3.67;;
9214;SDS011;4642;51.364;6.788;2023-04-03T03:08:07;8.53;;;4.70;;
9214;SDS011;4642;51.364;6.788;2023-04-03T03:10:33;4.97;;;3.30;;
9214;SDS011;4642;51.364;6.788;2023-04-03T03:12:59;5.47;;;4.10;;
9214;SDS011;4642;51.364;6.788;2023-04-03T03:15:25;9.40;;;3.60;;
9214;SDS011;4642;51.364;6.788;2023-04-03T03:17:51;5.23;;;3.57;;
9214;SDS011;4642;51.364;6.788;2023-04-03T03:20:17;7.10;;;4.70;;
9214;SDS011;4642;51.364;6.788;2023-04-03T03:22:42;6.27;;;4.07;;
9214;SDS011;4642;51.364;6.788;2023-04-03T03:25:08;5.77;;;4.30;;
9214;SDS011;4642;51.364;6.788;2023-04-03T03:27:34;7.17;;;3.53;;
9214;SDS011;4642;51.364;6.788;2023-04-03T03:29:59;10.13;;;4.40;;
9214;SDS011;4642;51.364;6.788;2023-04-03T03:32:25;7.27;;;4.37;;
9214;SDS011;4642;51.364;6.788;2023-04-03T03:34:50;5.03;;;4.00;;
9214;SDS011;4642;51.364;6.788;2023-04-03T03:37:16;8.97;;;4.60;;
9214;SDS011;4642;51.364;6.788;2023-04-03T03:39:41;7.80;;;3.87;;
9214;SDS011;4642;51.364;6.788;2023-04-03T03:42:07;5.23;;;4.23;;
9214;SDS011;4642;51.364;6.788;2023-04-03T03:44:33;10.63;;;4.03;;
9214;SDS011;4642;51.364;6.788;2023-04-03T03:46:58;4.77;;;3.40;;
9214;SDS011;4642;51.364;6.788;2023-04-03T03:49:24;9.80;;;4.20;;
9214;SDS011;4642;51.364;6.788;2023-04-03T03:51:50;4.93;;;3.40;;
9214;SDS011;4642;51.364;6.788;2023-04-03T03:54:16;4.10;;;3.13;;
9214;SDS011;4642;51.364;6.788;2023-04-03T03:56:42;7.90;;;3.50;;
9214;SDS011;4642;51.364;6.788;2023-04-03T03:59:07;5.93;;;3.80;;
9214;SDS011;4642;51.364;6.788;2023-04-03T04:01:33;6.30;;;4.10;;
9214;SDS011;4642;51.364;6.788;2023-04-03T04:03:59;9.90;;;3.30;;
9214;SDS011;4642;51.364;6.788;2023-04-03T04:06:24;5.13;;;3.17;;
9214;SDS011;4642;51.364;6.788;2023-04-03T04:08:50;5.53;;;3.17;;
9214;SDS011;4642;51.364;6.788;2023-04-03T04:11:16;5.30;;;2.83;;
9214;SDS011;4642;51.364;6.788;2023-04-03T04:13:42;5.57;;;2.77;;
9214;SDS011;4642;51.364;6.788;2023-04-03T04:16:07;4.67;;;3.00;;
9214;SDS011;4642;51.364;6.788;2023-04-03T04:18:33;8.17;;;2.80;;
9214;SDS011;4642;51.364;6.788;2023-04-03T04:20:59;4.50;;;2.77;;
9214;SDS011;4642;51.364;6.788;2023-04-03T04:23:25;8.30;;;3.00;;
9214;SDS011;4642;51.364;6.788;2023-04-03T04:25:50;4.40;;;2.93;;
9214;SDS011;4642;51.364;6.788;2023-04-03T04:28:16;6.27;;;3.07;;
9214;SDS011;4642;51.364;6.788;2023-04-03T04:30:42;9.20;;;2.83;;
9214;SDS011;4642;51.364;6.788;2023-04-03T04:33:08;6.90;;;2.60;;
9214;SDS011;4642;51.364;6.788;2023-04-03T04:35:34;7.33;;;2.77;;
9214;SDS011;4642;51.364;6.788;2023-04-03T04:38:00;3.67;;;2.47;;
9214;SDS011;4642;51.364;6.788;2023-04-03T04:40:26;5.57;;;2.60;;
9214;SDS011;4642;51.364;6.788;2023-04-03T04:42:52;5.33;;;2.57;;
9214;SDS011;4642;51.364;6.788;2023-04-03T04:45:18;5.47;;;2.40;;
9214;SDS011;4642;51.364;6.788;2023-04-03T04:47:43;5.20;;;2.43;;
9214;SDS011;4642;51.364;6.788;2023-04-03T04:50:09;8.83;;;2.80;;
9214;SDS011;4642;51.364;6.788;2023-04-03T04:52:35;5.67;;;2.40;;
9214;SDS011;4642;51.364;6.788;2023-04-03T04:55:01;6.50;;;3.00;;
9214;SDS011;4642;51.364;6.788;2023-04-03T04:57:27;4.10;;;2.13;;
9214;SDS011;4642;51.364;6.788;2023-04-03T04:59:52;6.37;;;2.70;;
9214;SDS011;4642;51.364;6.788;2023-04-03T05:02:18;9.17;;;2.47;;
9214;SDS011;4642;51.364;6.788;2023-04-03T05:04:43;10.73;;;2.83;;
9214;SDS011;4642;51.364;6.788;2023-04-03T05:07:09;5.13;;;2.13;;
9214;SDS011;4642;51.364;6.788;2023-04-03T05:09:35;4.27;;;2.30;;
9214;SDS011;4642;51.364;6.788;2023-04-03T05:12:00;5.37;;;2.53;;
9214;SDS011;4642;51.364;6.788;2023-04-03T05:14:27;5.03;;;2.27;;
9214;SDS011;4642;51.364;6.788;2023-04-03T05:16:53;3.73;;;2.53;;
9214;SDS011;4642;51.364;6.788;2023-04-03T05:19:19;4.50;;;1.93;;
9214;SDS011;4642;51.364;6.788;2023-04-03T05:21:45;6.13;;;2.40;;
9214;SDS011;4642;51.364;6.788;2023-04-03T05:24:11;6.97;;;1.97;;
9214;SDS011;4642;51.364;6.788;2023-04-03T05:26:36;4.73;;;2.10;;
9214;SDS011;4642;51.364;6.788;2023-04-03T05:29:02;5.40;;;1.90;;
9214;SDS011;4642;51.364;6.788;2023-04-03T05:31:28;4.07;;;2.40;;
9214;SDS011;4642;51.364;6.788;2023-04-03T05:33:54;6.17;;;2.10;;
9214;SDS011;4642;51.364;6.788;2023-04-03T05:36:20;8.00;;;2.27;;
9214;SDS011;4642;51.364;6.788;2023-04-03T05:38:46;9.93;;;2.27;;
9214;SDS011;4642;51.364;6.788;2023-04-03T05:41:12;4.40;;;2.17;;
9214;SDS011;4642;51.364;6.788;2023-04-03T05:43:38;3.80;;;1.77;;
9214;SDS011;4642;51.364;6.788;2023-04-03T05:46:04;2.93;;;1.73;;
9214;SDS011;4642;51.364;6.788;2023-04-03T05:48:33;8.27;;;2.17;;
9214;SDS011;4642;51.364;6.788;2023-04-03T05:50:59;5.80;;;1.50;;
9214;SDS011;4642;51.364;6.788;2023-04-03T05:53:26;3.97;;;2.00;;
9214;SDS011;4642;51.364;6.788;2023-04-03T05:55:54;7.13;;;2.33;;
9214;SDS011;4642;51.364;6.788;2023-04-03T05:58:19;6.43;;;1.80;;
9214;SDS011;4642;51.364;6.788;2023-04-03T06:00:45;6.00;;;2.10;;
9214;SDS011;4642;51.364;6.788;2023-04-03T06:03:11;8.97;;;2.73;;
9214;SDS011;4642;51.364;6.788;2023-04-03T06:05:36;4.97;;;1.70;;
9214;SDS011;4642;51.364;6.788;2023-04-03T06:08:02;5.73;;;1.77;;
9214;SDS011;4642;51.364;6.788;2023-04-03T06:10:28;8.63;;;2.30;;
9214;SDS011;4642;51.364;6.788;2023-04-03T06:12:54;5.80;;;2.20;;
9214;SDS011;4642;51.364;6.788;2023-04-03T06:15:20;6.40;;;2.10;;
9214;SDS011;4642;51.364;6.788;2023-04-03T06:17:46;2.70;;;1.90;;
9214;SDS011;4642;51.364;6.788;2023-04-03T06:20:12;5.67;;;1.77;;
9214;SDS011;4642;51.364;6.788;2023-04-03T06:22:38;3.43;;;1.70;;
9214;SDS011;4642;51.364;6.788;2023-04-03T06:25:03;6.50;;;2.20;;
9214;SDS011;4642;51.364;6.788;2023-04-03T06:27:30;3.40;;;1.67;;
9214;SDS011;4642;51.364;6.788;2023-04-03T06:29:55;5.80;;;1.83;;
9214;SDS011;4642;51.364;6.788;2023-04-03T06:32:21;5.67;;;2.20;;
9214;SDS011;4642;51.364;6.788;2023-04-03T06:34:46;5.60;;;2.50;;
9214;SDS011;4642;51.364;6.788;2023-04-03T06:37:14;10.23;;;2.63;;
9214;SDS011;4642;51.364;6.788;2023-04-03T06:39:41;3.60;;;1.73;;
9214;SDS011;4642;51.364;6.788;2023-04-03T06:42:07;5.37;;;2.20;;
9214;SDS011;4642;51.364;6.788;2023-04-03T06:44:32;4.63;;;2.27;;
9214;SDS011;4642;51.364;6.788;2023-04-03T06:46:59;4.30;;;2.00;;
9214;SDS011;4642;51.364;6.788;2023-04-03T06:49:25;2.60;;;1.70;;
9214;SDS011;4642;51.364;6.788;2023-04-03T06:51:51;7.17;;;1.97;;
9214;SDS011;4642;51.364;6.788;2023-04-03T06:54:16;5.73;;;2.40;;
9214;SDS011;4642;51.364;6.788;2023-04-03T06:56:43;7.50;;;2.43;;
9214;SDS011;4642;51.364;6.788;2023-04-03T06:59:09;5.33;;;2.00;;
9214;SDS011;4642;51.364;6.788;2023-04-03T07:01:35;5.73;;;2.03;;
9214;SDS011;4642;51.364;6.788;2023-04-03T07:04:00;5.13;;;2.40;;
9214;SDS011;4642;51.364;6.788;2023-04-03T07:06:26;4.83;;;2.03;;
9214;SDS011;4642;51.364;6.788;2023-04-03T07:08:52;8.53;;;2.10;;
9214;SDS011;4642;51.364;6.788;2023-04-03T07:11:18;6.80;;;1.90;;
9214;SDS011;4642;51.364;6.788;2023-04-03T07:13:45;5.23;;;2.20;;
9214;SDS011;4642;51.364;6.788;2023-04-03T07:16:10;6.43;;;2.27;;
9214;SDS011;4642;51.364;6.788;2023-04-03T07:18:36;4.07;;;1.47;;
9214;SDS011;4642;51.364;6.788;2023-04-03T07:21:02;3.63;;;1.80;;
9214;SDS011;4642;51.364;6.788;2023-04-03T07:23:28;3.10;;;1.67;;
9214;SDS011;4642;51.364;6.788;2023-04-03T07:25:54;2.70;;;1.90;;
9214;SDS011;4642;51.364;6.788;2023-04-03T07:28:21;3.23;;;1.90;;
9214;SDS011;4642;51.364;6.788;2023-04-03T07:30:54;4.20;;;1.93;;
9214;SDS011;4642;51.364;6.788;2023-04-03T07:33:28;4.57;;;1.77;;
9214;SDS011;4642;51.364;6.788;2023-04-03T07:35:54;3.87;;;1.97;;
9214;SDS011;4642;51.364;6.788;2023-04-03T07:38:20;4.60;;;1.80;;
9214;SDS011;4642;51.364;6.788;2023-04-03T07:40:46;5.70;;;1.70;;
9214;SDS011;4642;51.364;6.788;2023-04-03T07:43:13;4.33;;;1.73;;
9214;SDS011;4642;51.364;6.788;2023-04-03T07:45:40;3.93;;;1.53;;
9214;SDS011;4642;51.364;6.788;2023-04-03T07:48:06;4.00;;;1.77;;
9214;SDS011;4642;51.364;6.788;2023-04-03T07:50:32;3.97;;;1.80;;
9214;SDS011;4642;51.364;6.788;2023-04-03T07:52:58;5.33;;;1.70;;
9214;SDS011;4642;51.364;6.788;2023-04-03T07:55:24;4.70;;;1.60;;
9214;SDS011;4642;51.364;6.788;2023-04-03T07:57:50;6.97;;;1.83;;
9214;SDS011;4642;51.364;6.788;2023-04-03T08:00:16;1.87;;;1.50;;
9214;SDS011;4642;51.364;6.788;2023-04-03T08:02:42;6.87;;;1.80;;
9214;SDS011;4642;51.364;6.788;2023-04-03T08:05:09;3.17;;;1.37;;
9214;SDS011;4642;51.364;6.788;2023-04-03T08:07:36;4.07;;;1.60;;
9214;SDS011;4642;51.364;6.788;2023-04-03T08:10:03;4.30;;;1.90;;
9214;SDS011;4642;51.364;6.788;2023-04-03T08:12:28;4.33;;;1.67;;
9214;SDS011;4642;51.364;6.788;2023-04-03T08:14:54;3.63;;;1.27;;
9214;SDS011;4642;51.364;6.788;2023-04-03T08:17:20;3.87;;;1.63;;
9214;SDS011;4642;51.364;6.788;2023-04-03T08:19:46;2.30;;;1.37;;
9214;SDS011;4642;51.364;6.788;2023-04-03T08:22:12;4.17;;;1.53;;
9214;SDS011;4642;51.364;6.788;2023-04-03T08:24:37;3.87;;;1.30;;
9214;SDS011;4642;51.364;6.788;2023-04-03T08:27:03;9.97;;;1.80;;
9214;SDS011;4642;51.364;6.788;2023-04-03T08:29:28;3.70;;;1.20;;
9214;SDS011;4642;51.364;6.788;2023-04-03T08:31:54;3.00;;;1.50;;
9214;SDS011;4642;51.364;6.788;2023-04-03T08:34:20;1.80;;;1.13;;
9214;SDS011;4642;51.364;6.788;2023-04-03T08:36:46;2.53;;;1.20;;
9214;SDS011;4642;51.364;6.788;2023-04-03T08:39:12;2.40;;;0.93;;
9214;SDS011;4642;51.364;6.788;2023-04-03T08:41:38;2.50;;;1.10;;
9214;SDS011;4642;51.364;6.788;2023-04-03T08:44:10;2.30;;;1.20;;
9214;SDS011;4642;51.364;6.788;2023-04-03T08:49:28;6.07;;;1.47;;
9214;SDS011;4642;51.364;6.788;2023-04-03T08:51:53;3.73;;;1.27;;
9214;SDS011;4642;51.364;6.788;2023-04-03T08:54:30;3.77;;;1.27;;
9214;SDS011;4642;51.364;6.788;2023-04-03T08:57:12;2.63;;;1.20;;
9214;SDS011;4642;51.364;6.788;2023-04-03T08:59:38;3.40;;;1.20;;
9214;SDS011;4642;51.364;6.788;2023-04-03T09:02:16;1.47;;;0.80;;
9214;SDS011;4642;51.364;6.788;2023-04-03T09:04:52;2.17;;;1.00;;
9214;SDS011;4642;51.364;6.788;2023-04-03T09:07:42;2.80;;;1.13;;
9214;SDS011;4642;51.364;6.788;2023-04-03T09:10:07;3.27;;;0.80;;
9214;SDS011;4642;51.364;6.788;2023-04-03T09:12:37;2.50;;;1.00;;
9214;SDS011;4642;51.364;6.788;2023-04-03T09:20:33;2.67;;;0.83;;
9214;SDS011;4642;51.364;6.788;2023-04-03T09:23:21;3.47;;;0.87;;
9214;SDS011;4642;51.364;6.788;2023-04-03T09:25:56;2.87;;;0.73;;
9214;SDS011;4642;51.364;6.788;2023-04-03T09:28:29;2.03;;;0.90;;
9214;SDS011;4642;51.364;6.788;2023-04-03T09:31:00;2.60;;;0.87;;
9214;SDS011;4642;51.364;6.788;2023-04-03T09:33:26;1.73;;;0.70;;
9214;SDS011;4642;51.364;6.788;2023-04-03T09:35:55;2.80;;;0.80;;
9214;SDS011;4642;51.364;6.788;2023-04-03T09:38:21;6.20;;;0.97;;
9214;SDS011;4642;51.364;6.788;2023-04-03T09:41:02;1.23;;;0.80;;
9214;SDS011;4642;51.364;6.788;2023-04-03T09:43:31;6.33;;;1.33;;
9214;SDS011;4642;51.364;6.788;2023-04-03T09:48:50;2.00;;;1.00;;
9214;SDS011;4642;51.364;6.788;2023-04-03T09:51:27;1.27;;;0.90;;
9214;SDS011;4642;51.364;6.788;2023-04-03T09:53:53;2.13;;;0.80;;
9214;SDS011;4642;51.364;6.788;2023-04-03T09:56:21;2.53;;;1.00;;
9214;SDS011;4642;51.364;6.788;2023-04-03T09:58:48;0.70;;;0.50;;
9214;SDS011;4642;51.364;6.788;2023-04-03T10:01:23;1.77;;;0.90;;
9214;SDS011;4642;51.364;6.788;2023-04-03T10:04:14;3.30;;;0.90;;
9214;SDS011;4642;51.364;6.788;2023-04-03T10:09:28;2.20;;;0.70;;
9214;SDS011;4642;51.364;6.788;2023-04-03T10:12:08;0.80;;;0.63;;
9214;SDS011;4642;51.364;6.788;2023-04-03T10:14:56;1.83;;;0.87;;
9214;SDS011;4642;51.364;6.788;2023-04-03T10:23:24;2.47;;;0.63;;
9214;SDS011;4642;51.364;6.788;2023-04-03T10:26:16;3.77;;;1.13;;
9214;SDS011;4642;51.364;6.788;2023-04-03T10:31:50;2.17;;;0.93;;
9214;SDS011;4642;51.364;6.788;2023-04-03T10:34:39;2.80;;;1.13;;
9214;SDS011;4642;51.364;6.788;2023-04-03T10:40:02;4.47;;;1.00;;
9214;SDS011;4642;51.364;6.788;2023-04-03T10:42:47;2.10;;;1.03;;
9214;SDS011;4642;51.364;6.788;2023-04-03T10:53:44;2.80;;;0.90;;
9214;SDS011;4642;51.364;6.788;2023-04-03T10:56:34;1.73;;;1.10;;
9214;SDS011;4642;51.364;6.788;2023-04-03T10:59:19;4.23;;;1.00;;
9214;SDS011;4642;51.364;6.788;2023-04-03T11:01:58;2.77;;;1.00;;
9214;SDS011;4642;51.364;6.788;2023-04-03T11:04:27;2.07;;;1.17;;
9214;SDS011;4642;51.364;6.788;2023-04-03T11:07:01;1.80;;;0.73;;
9214;SDS011;4642;51.364;6.788;2023-04-03T11:09:35;1.73;;;1.10;;
9214;SDS011;4642;51.364;6.788;2023-04-03T11:12:52;1.20;;;0.90;;
9214;SDS011;4642;51.364;6.788;2023-04-03T11:14:56;1.87;;;0.77;;
9214;SDS011;4642;51.364;6.788;2023-04-03T11:17:26;1.97;;;1.03;;
9214;SDS011;4642;51.364;6.788;2023-04-03T11:20:15;1.20;;;0.90;;
9214;SDS011;4642;51.364;6.788;2023-04-03T11:25:46;3.40;;;1.00;;
9214;SDS011;4642;51.364;6.788;2023-04-03T11:28:17;3.30;;;1.30;;
9214;SDS011;4642;51.364;6.788;2023-04-03T11:35:47;1.97;;;0.90;;
9214;SDS011;4642;51.364;6.788;2023-04-03T11:38:23;2.07;;;1.10;;
9214;SDS011;4642;51.364;6.788;2023-04-03T11:40:59;3.60;;;1.10;;
9214;SDS011;4642;51.364;6.788;2023-04-03T11:43:27;2.27;;;1.40;;
9214;SDS011;4642;51.364;6.788;2023-04-03T11:45:56;2.17;;;1.00;;
9214;SDS011;4642;51.364;6.788;2023-04-03T11:50:53;3.97;;;1.10;;
9214;SDS011;4642;51.364;6.788;2023-04-03T12:04:14;2.50;;;0.90;;
9214;SDS011;4642;51.364;6.788;2023-04-03T12:06:43;2.37;;;0.80;;
9214;SDS011;4642;51.364;6.788;2023-04-03T12:09:31;2.77;;;1.10;;
9214;SDS011;4642;51.364;6.788;2023-04-03T12:12:37;3.20;;;1.20;;
9214;SDS011;4642;51.364;6.788;2023-04-03T12:15:12;3.40;;;1.13;;
9214;SDS011;4642;51.364;6.788;2023-04-03T12:17:49;1.40;;;0.90;;
9214;SDS011;4642;51.364;6.788;2023-04-03T12:23:29;4.00;;;1.07;;
9214;SDS011;4642;51.364;6.788;2023-04-03T12:26:05;1.70;;;0.90;;
9214;SDS011;4642;51.364;6.788;2023-04-03T12:28:44;1.87;;;0.87;;
9214;SDS011;4642;51.364;6.788;2023-04-03T12:31:11;1.07;;;0.90;;
9214;SDS011;4642;51.364;6.788;2023-04-03T12:36:18;1.97;;;1.00;;
9214;SDS011;4642;51.364;6.788;2023-04-03T12:44:21;1.93;;;1.00;;
9214;SDS011;4642;51.364;6.788;2023-04-03T12:47:10;2.07;;;0.90;;
9214;SDS011;4642;51.364;6.788;2023-04-03T12:49:48;3.07;;;0.90;;
9214;SDS011;4642;51.364;6.788;2023-04-03T12:55:16;2.73;;;0.83;;
9214;SDS011;4642;51.364;6.788;2023-04-03T12:57:45;5.53;;;1.27;;
9214;SDS011;4642;51.364;6.788;2023-04-03T13:00:28;1.57;;;0.97;;
9214;SDS011;4642;51.364;6.788;2023-04-03T13:02:57;1.73;;;1.13;;
9214;SDS011;4642;51.364;6.788;2023-04-03T13:05:24;1.37;;;0.80;;
9214;SDS011;4642;51.364;6.788;2023-04-03T13:07:51;2.67;;;0.90;;
9214;SDS011;4642;51.364;6.788;2023-04-03T13:10:22;2.60;;;0.90;;
9214;SDS011;4642;51.364;6.788;2023-04-03T13:12:49;3.67;;;1.10;;
9214;SDS011;4642;51.364;6.788;2023-04-03T13:17:55;4.63;;;0.90;;
9214;SDS011;4642;51.364;6.788;2023-04-03T13:20:26;1.23;;;0.90;;
9214;SDS011;4642;51.364;6.788;2023-04-03T13:22:58;2.50;;;1.10;;
9214;SDS011;4642;51.364;6.788;2023-04-03T13:25:28;2.30;;;1.10;;
9214;SDS011;4642;51.364;6.788;2023-04-03T13:27:56;1.73;;;0.90;;
9214;SDS011;4642;51.364;6.788;2023-04-03T13:32:52;1.20;;;0.90;;
9214;SDS011;4642;51.364;6.788;2023-04-03T13:37:57;3.13;;;1.50;;
9214;SDS011;4642;51.364;6.788;2023-04-03T13:40:31;4.97;;;1.20;;
9214;SDS011;4642;51.364;6.788;2023-04-03T13:42:58;3.80;;;0.97;;
9214;SDS011;4642;51.364;6.788;2023-04-03T13:45:26;1.93;;;0.83;;
9214;SDS011;4642;51.364;6.788;2023-04-03T13:48:06;1.70;;;0.90;;
9214;SDS011;4642;51.364;6.788;2023-04-03T13:50:51;3.90;;;1.20;;
9214;SDS011;4642;51.364;6.788;2023-04-03T13:53:29;2.97;;;1.10;;
9214;SDS011;4642;51.364;6.788;2023-04-03T13:58:28;3.40;;;1.13;;
9214;SDS011;4642;51.364;6.788;2023-04-03T14:01:09;1.57;;;0.90;;
9214;SDS011;4642;51.364;6.788;2023-04-03T14:03:47;3.13;;;1.10;;
9214;SDS011;4642;51.364;6.788;2023-04-03T14:06:19;3.67;;;0.80;;
9214;SDS011;4642;51.364;6.788;2023-04-03T14:08:45;1.40;;;0.80;;
9214;SDS011;4642;51.364;6.788;2023-04-03T14:11:16;0.97;;;0.70;;
9214;SDS011;4642;51.364;6.788;2023-04-03T14:13:47;3.60;;;1.10;;
9214;SDS011;4642;51.364;6.788;2023-04-03T14:16:21;1.90;;;0.93;;
9214;SDS011;4642;51.364;6.788;2023-04-03T14:18:49;4.53;;;1.10;;
9214;SDS011;4642;51.364;6.788;2023-04-03T14:21:17;4.03;;;1.00;;
9214;SDS011;4642;51.364;6.788;2023-04-03T14:23:44;2.40;;;0.90;;
9214;SDS011;4642;51.364;6.788;2023-04-03T14:26:15;1.00;;;0.80;;
9214;SDS011;4642;51.364;6.788;2023-04-03T14:28:43;1.43;;;0.90;;
9214;SDS011;4642;51.364;6.788;2023-04-03T14:31:10;4.30;;;1.17;;
9214;SDS011;4642;51.364;6.788;2023-04-03T14:33:37;1.53;;;0.80;;
9214;SDS011;4642;51.364;6.788;2023-04-03T14:38:39;3.80;;;1.10;;
9214;SDS011;4642;51.364;6.788;2023-04-03T14:41:05;2.20;;;0.80;;
9214;SDS011;4642;51.364;6.788;2023-04-03T14:43:31;3.77;;;1.03;;
9214;SDS011;4642;51.364;6.788;2023-04-03T14:45:57;1.13;;;0.80;;
9214;SDS011;4642;51.364;6.788;2023-04-03T14:48:24;2.13;;;0.80;;
9214;SDS011;4642;51.364;6.788;2023-04-03T14:50:52;1.73;;;1.00;;
9214;SDS011;4642;51.364;6.788;2023-04-03T14:53:18;1.83;;;1.00;;
9214;SDS011;4642;51.364;6.788;2023-04-03T14:55:47;2.20;;;1.30;;
9214;SDS011;4642;51.364;6.788;2023-04-03T14:58:14;1.63;;;1.07;;
9214;SDS011;4642;51.364;6.788;2023-04-03T15:00:42;2.07;;;1.00;;
9214;SDS011;4642;51.364;6.788;2023-04-03T15:03:12;2.03;;;1.20;;
9214;SDS011;4642;51.364;6.788;2023-04-03T15:05:40;2.30;;;0.87;;
9214;SDS011;4642;51.364;6.788;2023-04-03T15:08:08;1.57;;;0.87;;
9214;SDS011;4642;51.364;6.788;2023-04-03T15:10:56;1.87;;;1.00;;
9214;SDS011;4642;51.364;6.788;2023-04-03T15:13:22;0.87;;;0.80;;
9214;SDS011;4642;51.364;6.788;2023-04-03T15:15:49;2.47;;;1.10;;
9214;SDS011;4642;51.364;6.788;2023-04-03T15:18:17;2.00;;;0.90;;
9214;SDS011;4642;51.364;6.788;2023-04-03T15:20:44;3.53;;;1.40;;
9214;SDS011;4642;51.364;6.788;2023-04-03T15:23:11;3.37;;;0.90;;
9214;SDS011;4642;51.364;6.788;2023-04-03T15:25:38;1.53;;;1.10;;
9214;SDS011;4642;51.364;6.788;2023-04-03T15:28:04;2.40;;;0.80;;
9214;SDS011;4642;51.364;6.788;2023-04-03T15:30:31;3.23;;;1.00;;
9214;SDS011;4642;51.364;6.788;2023-04-03T15:32:56;1.43;;;0.73;;
9214;SDS011;4642;51.364;6.788;2023-04-03T15:35:22;2.80;;;1.13;;
9214;SDS011;4642;51.364;6.788;2023-04-03T15:37:47;1.83;;;0.90;;
9214;SDS011;4642;51.364;6.788;2023-04-03T15:40:13;2.23;;;1.13;;
9214;SDS011;4642;51.364;6.788;2023-04-03T15:42:39;1.67;;;0.77;;
9214;SDS011;4642;51.364;6.788;2023-04-03T15:45:06;2.10;;;0.93;;
9214;SDS011;4642;51.364;6.788;2023-04-03T15:47:32;4.70;;;0.97;;
9214;SDS011;4642;51.364;6.788;2023-04-03T15:49:58;2.30;;;0.93;;
9214;SDS011;4642;51.364;6.788;2023-04-03T15:52:23;2.87;;;1.10;;
9214;SDS011;4642;51.364;6.788;2023-04-03T15:54:49;1.90;;;0.80;;
9214;SDS011;4642;51.364;6.788;2023-04-03T15:57:15;1.67;;;0.70;;
9214;SDS011;4642;51.364;6.788;2023-04-03T15:59:40;2.63;;;1.00;;
9214;SDS011;4642;51.364;6.788;2023-04-03T16:02:06;2.43;;;1.10;;
9214;SDS011;4642;51.364;6.788;2023-04-03T16:04:34;2.00;;;0.93;;
9214;SDS011;4642;51.364;6.788;2023-04-03T16:07:03;1.93;;;0.83;;
9214;SDS011;4642;51.364;6.788;2023-04-03T16:09:29;1.03;;;0.70;;
9214;SDS011;4642;51.364;6.788;2023-04-03T16:11:56;3.13;;;0.90;;
9214;SDS011;4642;51.364;6.788;2023-04-03T16:14:22;5.60;;;1.20;;
9214;SDS011;4642;51.364;6.788;2023-04-03T16:16:47;2.93;;;1.07;;
9214;SDS011;4642;51.364;6.788;2023-04-03T16:19:13;1.37;;;1.07;;
9214;SDS011;4642;51.364;6.788;2023-04-03T16:21:38;1.87;;;0.90;;
9214;SDS011;4642;51.364;6.788;2023-04-03T16:24:04;2.30;;;1.17;;
9214;SDS011;4642;51.364;6.788;2023-04-03T16:26:30;1.43;;;1.27;;
9214;SDS011;4642;51.364;6.788;2023-04-03T16:28:56;1.97;;;0.83;;
9214;SDS011;4642;51.364;6.788;2023-04-03T16:31:21;2.30;;;0.87;;
9214;SDS011;4642;51.364;6.788;2023-04-03T16:33:48;1.70;;;0.93;;
9214;SDS011;4642;51.364;6.788;2023-04-03T16:36:14;2.00;;;1.10;;
9214;SDS011;4642;51.364;6.788;2023-04-03T16:38:40;3.90;;;1.20;;
9214;SDS011;4642;51.364;6.788;2023-04-03T16:41:06;1.93;;;0.93;;
9214;SDS011;4642;51.364;6.788;2023-04-03T16:43:32;3.43;;;1.17;;
9214;SDS011;4642;51.364;6.788;2023-04-03T16:45:58;2.00;;;0.90;;
9214;SDS011;4642;51.364;6.788;2023-04-03T16:48:24;3.97;;;1.13;;
9214;SDS011;4642;51.364;6.788;2023-04-03T16:50:50;4.30;;;1.43;;